Current Weather

Columbia Gorge Rgnl/the Dalles Muni

The Dalles, Washington (KDLS)

Report from: Monday, August 15, 2022 4:53 PM PDT
Current time: Monday, August 15, 2022 5:49 PM PDT

Nearby weather
Weather history
Weather forecast

Temperature35.6°C (96.1°F)
Heat index33.5°C (92.3°F)
Dew point7.8°C (46.0°F)
Winds 13 kts (6.7 m/s, 15 mph) North-Northwest (330°)
Visibility10 mi. (16.1 km)
Clouds Sky clear
Altimeter29.88 in.Hg (1012 mB)
Relative humidity18 %
Density altitude2,536 ft. (773 m)
Sea-level pressure101.2 kPa (1012 mB, 29.87 in.Hg)
Max temp last 6 hours37.2°C (99.0°F)
Min temp last 6 hours28.3°C (82.9°F)
Remarks Fully automated report
Automated weather observing station with precipitation discriminator
Pressure falling more slowly
Flight conditions Visual Meteorological Conditions
Raw dataKDLS 152353Z AUTO 33013KT 10SM CLR 36/08 A2988 RMK AO2 SLP116 T03560078 10372 20283 56017
An error has occurred. This application may no longer respond until reloaded. Reload 🗙